KSEP/SEP METAR and TAF weather

Enter ICAO airport designator
Station Type Date Time Source
KSEP METAR 2019/08/24 06:55 UTC NOAA

KSEP 240655Z AUTO 00000KT 10SM CLR 23/21 A3000 RMK AO2 T02250205


Station Type Date Time Source
KSEP Decoded METAR 2019/08/24 06:55 UTC NOAA

Station name not available
Aug 24, 2019 - 02:55 AM EDT / 2019.08.24 0655 UTC
Wind: Calm:0
Visibility: 10 mile(s):0
Sky conditions: clear
Temperature: 72.5 F (22.5 C)
Dew Point: 68.9 F (20.5 C)
Relative Humidity: 88%
Pressure (altimeter): 30 in. Hg (1015 hPa)
ob: KSEP 240655Z AUTO 00000KT 10SM CLR 23/21 A3000 RMK AO2 T02250205
cycle: 7

Station Type Date Time Source
KSEP TAF UTC NOAA

Error!

Example: see airport list